Forside
METAR-TAF:

METAR-TAF

Lufthavne :

Olney-Noble Airport

Olney-Noble, Illinois, USA

Breddekreds: 38-43-19N, længdekreds: 088-10-35W, højde: 147 m

Aktuelle vejr

Denne rapport blev lavet for 32 minutter siden, kl. 15:35 UTC
Vind 6 kt fra nordvest
Temperatur 24°C
Fugtighed 65%
Tryk 1008 hPa
Sigt: 16.1 km
Spredte skyer i en højde af 1900 ft

METAR: KOLY 081535Z AUTO 31006KT 10SM SCT019 24/17 A2978 RMK AO2 T02400174

Tid: 11:07 (16:07 UTC)


TAF: fraværende

Vejrobservationer og prognoser fra mere end 4000 lufthavne (METAR og TAF).

De gule og røde prikker repræsenterer de meteorologiske stationer.

Flyt musen over at se navnet på stationen.

Så klik over at se vejr observationer og prognoser.

At skifte det kort: Klik på de grønne knapper med et sort kors for at zoome ind; på den grønne knap med en bindestreg for at zoome ud; eller på de grønne pile for tilstødende kort.


METAR-TAF: